createdAt,value
2022-12-09T00:02:34.759Z,62.04
2022-12-09T00:05:41.071Z,62.13
2022-12-09T00:08:43.670Z,62.15
2022-12-09T00:11:45.832Z,62.19
2022-12-09T00:14:47.865Z,62.02
2022-12-09T00:17:49.954Z,62.05
2022-12-09T00:20:52.266Z,62.24
2022-12-09T00:23:55.401Z,62.29
2022-12-09T00:26:57.600Z,61.98
2022-12-09T00:30:00.515Z,61.93
2022-12-09T00:33:03.242Z,62.03
2022-12-09T00:36:11.404Z,61.89
2022-12-09T00:39:13.859Z,61.94
2022-12-09T00:42:15.972Z,62.01
2022-12-09T00:45:18.104Z,61.84
2022-12-09T00:48:20.177Z,62.00
2022-12-09T00:51:23.712Z,61.99
2022-12-09T00:54:25.866Z,62.28
2022-12-09T00:57:27.988Z,61.90
2022-12-09T01:00:30.097Z,61.95
2022-12-09T01:03:33.171Z,61.97
2022-12-09T01:06:35.768Z,61.91
2022-12-09T01:09:37.970Z,61.84
2022-12-09T01:12:40.265Z,61.93
2022-12-09T01:15:42.997Z,61.85
2022-12-09T01:18:45.581Z,61.80
2022-12-09T01:21:47.732Z,61.91
2022-12-09T01:24:49.836Z,62.01
2022-12-09T01:27:52.009Z,61.90
2022-12-09T01:30:54.952Z,62.01
2022-12-09T01:33:57.513Z,61.80
2022-12-09T01:37:00.861Z,61.91
2022-12-09T01:40:10.896Z,62.11
2022-12-09T01:43:19.694Z,62.06
2022-12-09T01:46:21.848Z,62.04
2022-12-09T01:49:48.227Z,61.83
2022-12-09T01:52:50.557Z,61.96
2022-12-09T01:55:54.542Z,61.91
2022-12-09T01:59:01.753Z,61.91
2022-12-09T02:02:04.162Z,61.98
2022-12-09T02:05:06.820Z,61.90
2022-12-09T02:08:18.729Z,62.10
2022-12-09T02:11:48.679Z,61.90
2022-12-09T02:15:26.081Z,62.03
2022-12-09T02:19:02.224Z,62.19
2022-12-09T02:22:04.649Z,62.19
2022-12-09T02:25:33.393Z,62.09
2022-12-09T02:29:23.570Z,62.06
2022-12-09T02:32:59.286Z,62.04
2022-12-09T02:36:05.774Z,62.14
2022-12-09T02:39:09.895Z,62.09
2022-12-09T02:42:17.333Z,62.09
2022-12-09T02:45:21.604Z,62.47
2022-12-09T02:48:35.732Z,62.16
2022-12-09T02:51:42.650Z,62.32
2022-12-09T02:54:47.658Z,62.31
2022-12-09T02:57:54.002Z,62.03
2022-12-09T03:00:57.268Z,48.21
2022-12-09T03:03:59.531Z,55.98
2022-12-09T03:07:20.127Z,60.12
2022-12-09T03:10:50.691Z,60.05
2022-12-09T03:14:21.586Z,59.97
2022-12-09T03:17:34.985Z,60.48
2022-12-09T03:20:39.551Z,60.44
2022-12-09T03:23:43.480Z,60.45
2022-12-09T03:26:46.098Z,60.36
2022-12-09T03:29:48.839Z,60.57
2022-12-09T03:32:50.987Z,60.55
2022-12-09T03:35:56.623Z,60.45
2022-12-09T03:38:58.966Z,60.61
2022-12-09T03:42:04.000Z,60.49
2022-12-09T03:45:11.541Z,60.26
2022-12-09T03:48:13.906Z,59.89
2022-12-09T03:51:23.845Z,60.19
2022-12-09T03:54:40.841Z,60.75
2022-12-09T03:57:43.438Z,61.11
2022-12-09T04:00:46.106Z,60.61
2022-12-09T04:03:49.566Z,60.73
2022-12-09T04:06:53.603Z,60.41
2022-12-09T04:09:55.892Z,60.38
2022-12-09T04:12:58.397Z,60.47
2022-12-09T04:16:00.632Z,60.08
2022-12-09T04:19:02.774Z,60.15
2022-12-09T04:22:04.954Z,60.20
2022-12-09T04:25:07.634Z,60.25
2022-12-09T04:28:09.745Z,60.32
2022-12-09T04:31:13.778Z,60.63
2022-12-09T04:34:16.260Z,60.48
2022-12-09T04:37:18.698Z,60.42
2022-12-09T04:40:24.002Z,60.52
2022-12-09T04:43:27.058Z,60.24
2022-12-09T04:46:29.263Z,60.41
2022-12-09T04:49:31.703Z,60.13
2022-12-09T04:52:33.907Z,60.35
2022-12-09T04:55:36.201Z,60.10
2022-12-09T04:58:38.528Z,60.10
2022-12-09T05:01:40.767Z,59.96
2022-12-09T05:04:43.194Z,60.08
2022-12-09T05:07:45.898Z,59.86
2022-12-09T05:10:49.993Z,59.98
2022-12-09T05:13:55.906Z,60.01
2022-12-09T05:16:58.166Z,60.11
2022-12-09T05:20:00.420Z,59.78
2022-12-09T05:23:08.902Z,59.90
2022-12-09T05:26:13.928Z,59.96
2022-12-09T05:29:21.023Z,59.90
2022-12-09T05:32:25.340Z,59.69
2022-12-09T05:35:27.936Z,60.07
2022-12-09T05:38:30.573Z,60.05
2022-12-09T05:41:33.126Z,60.16
2022-12-09T05:44:35.575Z,59.88
2022-12-09T05:47:38.146Z,59.98
2022-12-09T05:50:40.612Z,59.99
2022-12-09T05:53:42.790Z,59.75
2022-12-09T05:56:48.422Z,59.89
2022-12-09T05:59:51.332Z,59.92
2022-12-09T06:02:53.635Z,60.07
2022-12-09T06:05:56.465Z,59.73
2022-12-09T06:09:00.661Z,59.61
2022-12-09T06:12:03.639Z,59.79
2022-12-09T06:15:09.827Z,59.42
2022-12-09T06:18:13.145Z,59.57
2022-12-09T06:21:17.035Z,59.76
2022-12-09T06:24:19.460Z,59.67
2022-12-09T06:27:21.773Z,59.67
2022-12-09T06:30:24.100Z,59.50
2022-12-09T06:33:52.915Z,59.59
2022-12-09T06:36:48.612Z,59.56
2022-12-09T06:39:50.900Z,59.61
2022-12-09T06:42:53.251Z,59.55
2022-12-09T06:45:55.359Z,59.34
2022-12-09T06:48:57.652Z,59.30
2022-12-09T06:51:59.985Z,59.28
2022-12-09T06:55:02.290Z,59.56
2022-12-09T06:58:04.406Z,59.58
2022-12-09T07:01:18.571Z,59.30
2022-12-09T07:04:21.543Z,59.52
2022-12-09T07:07:24.022Z,59.21
2022-12-09T07:10:26.526Z,59.43
2022-12-09T07:13:28.862Z,59.38
2022-12-09T07:16:31.418Z,59.45
2022-12-09T07:19:34.437Z,59.15
2022-12-09T07:22:37.081Z,59.24
2022-12-09T07:25:39.552Z,59.21
2022-12-09T07:28:47.373Z,59.35
2022-12-09T07:31:49.790Z,59.24
2022-12-09T07:34:52.011Z,59.14
2022-12-09T07:37:55.897Z,59.29
2022-12-09T07:41:04.921Z,59.15
2022-12-09T07:44:07.437Z,59.21
2022-12-09T07:47:10.088Z,59.17
2022-12-09T07:50:12.397Z,58.95
2022-12-09T07:53:14.840Z,59.27
2022-12-09T07:56:18.496Z,59.44
2022-12-09T07:59:21.081Z,59.45
2022-12-09T08:02:23.449Z,59.30
2022-12-09T08:05:25.877Z,59.23
2022-12-09T08:08:28.635Z,59.15
2022-12-09T08:11:31.900Z,59.06
2022-12-09T08:14:34.230Z,58.85
2022-12-09T08:17:36.605Z,59.24
2022-12-09T08:20:39.911Z,59.20
2022-12-09T08:23:42.666Z,59.08
2022-12-09T08:26:45.202Z,59.12
2022-12-09T08:29:47.497Z,59.65
2022-12-09T08:32:50.017Z,59.54
2022-12-09T08:35:52.378Z,58.26
2022-12-09T08:38:54.705Z,58.02
2022-12-09T08:41:57.008Z,57.38
2022-12-09T08:45:02.391Z,57.33
2022-12-09T08:48:06.276Z,57.68
2022-12-09T08:51:09.987Z,57.59
2022-12-09T08:54:12.233Z,57.07
2022-12-09T08:57:14.806Z,56.99
2022-12-09T09:00:18.942Z,56.87
2022-12-09T09:03:21.688Z,57.02
2022-12-09T09:06:24.126Z,56.78
2022-12-09T09:09:26.806Z,56.39
2022-12-09T09:12:29.227Z,56.41
2022-12-09T09:15:31.997Z,55.93
2022-12-09T09:18:34.319Z,56.01
2022-12-09T09:21:37.021Z,55.87
2022-12-09T09:24:39.687Z,55.76
2022-12-09T09:27:42.123Z,55.56
2022-12-09T09:30:44.767Z,55.69
2022-12-09T09:33:47.875Z,55.38
2022-12-09T09:36:51.344Z,55.43
2022-12-09T09:39:54.045Z,55.26
2022-12-09T09:42:56.829Z,55.05
2022-12-09T09:45:59.478Z,54.83
2022-12-09T09:49:02.574Z,54.85
2022-12-09T09:52:15.826Z,54.92
2022-12-09T09:55:19.264Z,54.56
2022-12-09T09:58:48.099Z,54.26
2022-12-09T10:02:50.417Z,54.19
2022-12-09T10:06:00.763Z,54.82
2022-12-09T10:09:20.891Z,54.36
2022-12-09T10:12:48.339Z,54.33
2022-12-09T10:16:15.357Z,54.51
2022-12-09T10:19:45.229Z,54.33
2022-12-09T10:23:05.243Z,54.70
2022-12-09T10:26:08.060Z,54.70
2022-12-09T10:29:20.157Z,54.35
2022-12-09T10:32:25.696Z,54.52
2022-12-09T10:35:30.745Z,54.51
2022-12-09T10:38:33.643Z,54.57
2022-12-09T10:42:07.140Z,54.09
2022-12-09T10:45:10.124Z,54.38
2022-12-09T10:48:33.342Z,53.52
2022-12-09T10:51:36.495Z,53.80
2022-12-09T10:54:41.693Z,53.73
2022-12-09T10:57:43.975Z,53.66
2022-12-09T11:01:16.021Z,53.17
2022-12-09T11:04:36.188Z,53.98
2022-12-09T11:07:38.634Z,54.74
2022-12-09T11:10:41.177Z,54.81
2022-12-09T11:13:43.585Z,54.94
2022-12-09T11:16:45.939Z,54.74
2022-12-09T11:19:53.302Z,54.65
2022-12-09T11:23:17.920Z,54.29
2022-12-09T11:26:25.975Z,54.61
2022-12-09T11:29:28.598Z,54.45
2022-12-09T11:32:30.924Z,54.20
2022-12-09T11:35:45.727Z,53.61
2022-12-09T11:38:49.612Z,53.90
2022-12-09T11:42:19.831Z,53.39
2022-12-09T11:45:36.379Z,53.07
2022-12-09T11:48:43.533Z,53.14
2022-12-09T11:52:17.226Z,52.56
2022-12-09T11:55:22.425Z,53.09
2022-12-09T11:59:00.373Z,52.58
2022-12-09T12:02:30.522Z,52.70
2022-12-09T12:05:50.092Z,53.25
2022-12-09T12:09:01.284Z,53.07
2022-12-09T12:12:43.093Z,52.63
2022-12-09T12:16:25.083Z,52.80
2022-12-09T12:19:40.629Z,53.49
2022-12-09T12:23:27.754Z,53.22
2022-12-09T12:26:47.582Z,53.49
2022-12-09T12:30:14.162Z,52.76
2022-12-09T12:34:07.647Z,52.77
2022-12-09T12:37:56.497Z,52.61
2022-12-09T12:41:22.420Z,52.75
2022-12-09T12:45:10.299Z,52.55
2022-12-09T12:48:43.317Z,52.32
2022-12-09T12:52:12.685Z,52.93
2022-12-09T12:55:47.583Z,52.97
2022-12-09T12:59:35.315Z,52.75
2022-12-09T13:02:51.620Z,53.18
2022-12-09T13:05:57.689Z,53.29
2022-12-09T13:09:03.536Z,53.31
2022-12-09T13:12:54.449Z,53.12
2022-12-09T13:16:34.516Z,52.89
2022-12-09T13:19:54.458Z,52.90
2022-12-09T13:23:11.521Z,53.41
2022-12-09T13:26:56.717Z,53.19
2022-12-09T13:30:20.960Z,53.18
2022-12-09T13:34:11.309Z,52.96
2022-12-09T13:37:44.515Z,53.16
2022-12-09T13:40:46.684Z,53.37
2022-12-09T13:43:48.759Z,53.37
2022-12-09T13:46:50.849Z,53.22
2022-12-09T13:49:58.934Z,53.19
2022-12-09T13:53:20.405Z,52.84
2022-12-09T13:56:26.551Z,52.80
2022-12-09T13:59:50.984Z,52.36
2022-12-09T14:03:02.397Z,52.56
2022-12-09T14:06:27.706Z,52.41
2022-12-09T14:09:44.676Z,51.96
2022-12-09T14:12:55.509Z,51.83
2022-12-09T14:16:27.502Z,51.28
2022-12-09T14:19:31.471Z,51.54
2022-12-09T14:22:35.197Z,51.77
2022-12-09T14:25:37.251Z,51.47
2022-12-09T14:28:50.169Z,51.52
2022-12-09T14:32:00.581Z,51.20
2022-12-09T14:35:07.272Z,50.98
2022-12-09T14:39:22.400Z,50.25
2022-12-09T14:42:37.044Z,50.46
2022-12-09T14:45:49.318Z,50.63
2022-12-09T14:49:17.544Z,50.28
2022-12-09T14:52:31.172Z,50.30
2022-12-09T14:55:37.308Z,50.38
2022-12-09T14:58:39.353Z,50.66
2022-12-09T15:01:57.236Z,50.01
2022-12-09T15:05:01.239Z,50.22
2022-12-09T15:08:03.548Z,50.30
2022-12-09T15:11:13.636Z,50.46
2022-12-09T15:14:27.800Z,50.56
2022-12-09T15:18:01.147Z,49.96
2022-12-09T15:21:03.315Z,51.11
2022-12-09T15:24:05.739Z,50.96
2022-12-09T15:27:18.872Z,50.87
2022-12-09T15:30:23.209Z,51.72
2022-12-09T15:33:26.163Z,51.66
2022-12-09T15:36:35.607Z,51.49
2022-12-09T15:39:52.360Z,51.65
2022-12-09T15:42:54.537Z,52.30
2022-12-09T15:45:56.644Z,52.38
2022-12-09T15:48:58.744Z,52.43
2022-12-09T15:52:02.043Z,52.57
2022-12-09T15:55:06.850Z,52.60
2022-12-09T15:58:14.346Z,52.54
2022-12-09T16:01:28.547Z,52.95
2022-12-09T16:04:47.732Z,52.75
2022-12-09T16:08:00.446Z,52.99
2022-12-09T16:11:02.636Z,53.61
2022-12-09T16:14:04.663Z,53.75
2022-12-09T16:17:06.709Z,53.73
2022-12-09T16:20:33.748Z,52.80
2022-12-09T16:23:35.818Z,53.87
2022-12-09T16:26:40.028Z,53.82
2022-12-09T16:29:42.075Z,54.20
2022-12-09T16:32:45.584Z,54.11
2022-12-09T16:36:07.072Z,53.41
2022-12-09T16:39:08.993Z,56.11
2022-12-09T16:42:35.242Z,53.41
2022-12-09T16:45:40.851Z,54.96
2022-12-09T16:48:43.385Z,55.00
2022-12-09T16:51:45.506Z,55.54
2022-12-09T16:54:48.696Z,55.39
2022-12-09T16:57:50.996Z,55.37
2022-12-09T17:00:53.085Z,55.27
2022-12-09T17:04:04.061Z,54.93
2022-12-09T17:07:06.109Z,55.74
2022-12-09T17:10:08.683Z,55.49
2022-12-09T17:13:12.514Z,55.56
2022-12-09T17:16:14.673Z,55.72
2022-12-09T17:19:16.802Z,55.91
2022-12-09T17:22:18.869Z,56.18
2022-12-09T17:25:22.176Z,55.79
2022-12-09T17:28:29.743Z,56.18
2022-12-09T17:31:32.208Z,56.13
2022-12-09T17:34:34.293Z,56.17
2022-12-09T17:37:36.330Z,56.45
2022-12-09T17:40:38.522Z,56.00
2022-12-09T17:43:40.747Z,56.35
2022-12-09T17:46:42.990Z,55.94
2022-12-09T17:49:45.042Z,56.20
2022-12-09T17:52:47.143Z,56.38
2022-12-09T17:55:49.218Z,56.14
2022-12-09T17:59:00.932Z,55.55
2022-12-09T18:02:04.601Z,56.38
2022-12-09T18:05:07.053Z,56.40
2022-12-09T18:08:09.218Z,56.62
2022-12-09T18:11:11.400Z,56.06
2022-12-09T18:14:13.723Z,56.02
2022-12-09T18:17:15.791Z,56.20
2022-12-09T18:20:17.829Z,56.34
2022-12-09T18:23:19.907Z,56.75
2022-12-09T18:26:27.106Z,56.38
2022-12-09T18:29:32.247Z,56.32
2022-12-09T18:32:36.204Z,56.21
2022-12-09T18:35:41.722Z,55.95
2022-12-09T18:38:44.103Z,56.55
2022-12-09T18:41:46.377Z,55.98
2022-12-09T18:44:51.798Z,55.66
2022-12-09T18:47:53.895Z,55.88
2022-12-09T18:50:55.954Z,55.86
2022-12-09T18:53:58.793Z,56.33
2022-12-09T18:57:03.900Z,55.83
2022-12-09T19:00:07.318Z,56.25
2022-12-09T19:03:09.592Z,55.68
2022-12-09T19:06:37.904Z,54.31
2022-12-09T19:09:40.179Z,53.41
2022-12-09T19:12:47.623Z,55.52
2022-12-09T19:15:49.886Z,55.36
2022-12-09T19:18:53.651Z,55.43
2022-12-09T19:21:55.771Z,55.29
2022-12-09T19:24:57.812Z,55.45
2022-12-09T19:27:59.886Z,55.65
2022-12-09T19:31:01.979Z,55.02
2022-12-09T19:34:16.061Z,54.74
2022-12-09T19:37:18.102Z,55.41
2022-12-09T19:40:20.148Z,55.51
2022-12-09T19:43:22.414Z,55.71
2022-12-09T19:46:24.736Z,55.39
2022-12-09T19:49:26.959Z,55.28
2022-12-09T19:52:29.026Z,55.25
2022-12-09T19:55:31.083Z,55.04
2022-12-09T19:58:35.529Z,55.41
2022-12-09T20:01:40.567Z,55.67
2022-12-09T20:04:50.762Z,55.51
2022-12-09T20:07:54.124Z,55.71
2022-12-09T20:10:56.194Z,55.56
2022-12-09T20:13:58.768Z,55.59
2022-12-09T20:17:00.882Z,55.78
2022-12-09T20:20:03.016Z,55.66
2022-12-09T20:23:05.089Z,55.60
2022-12-09T20:26:18.873Z,54.88
2022-12-09T20:29:20.975Z,55.83
2022-12-09T20:32:23.016Z,55.96
2022-12-09T20:35:25.255Z,55.35
2022-12-09T20:38:27.295Z,55.54
2022-12-09T20:41:29.537Z,55.65
2022-12-09T20:44:32.545Z,55.45
2022-12-09T20:47:34.723Z,55.76
2022-12-09T20:50:39.170Z,55.34
2022-12-09T20:53:42.263Z,55.52
2022-12-09T20:56:44.360Z,55.30
2022-12-09T20:59:46.421Z,55.42
2022-12-09T21:02:48.465Z,55.82
2022-12-09T21:05:57.069Z,54.92
2022-12-09T21:09:04.862Z,55.35
2022-12-09T21:12:07.003Z,55.60
2022-12-09T21:15:10.529Z,55.53
2022-12-09T21:18:12.566Z,55.77
2022-12-09T21:21:14.921Z,55.19
2022-12-09T21:24:17.896Z,55.32
2022-12-09T21:27:19.955Z,55.46
2022-12-09T21:30:23.036Z,55.23
2022-12-09T21:33:25.096Z,55.28
2022-12-09T21:36:29.158Z,55.36
2022-12-09T21:39:31.524Z,54.92
2022-12-09T21:42:33.558Z,55.03
2022-12-09T21:45:35.765Z,55.00
2022-12-09T21:48:39.469Z,54.84
2022-12-09T21:51:41.734Z,55.38
2022-12-09T21:54:43.781Z,55.04
2022-12-09T21:57:45.913Z,55.18
2022-12-09T22:00:48.002Z,55.43
2022-12-09T22:03:50.254Z,55.25
2022-12-09T22:06:52.298Z,55.74
2022-12-09T22:09:55.175Z,55.31
2022-12-09T22:12:57.261Z,55.43
2022-12-09T22:15:59.318Z,55.50
2022-12-09T22:19:02.031Z,55.57
2022-12-09T22:22:08.884Z,55.79
2022-12-09T22:25:11.580Z,55.30
2022-12-09T22:28:13.646Z,55.54
2022-12-09T22:31:18.192Z,55.40
2022-12-09T22:34:20.941Z,55.47
2022-12-09T22:37:43.163Z,55.81
2022-12-09T22:40:45.808Z,55.29
2022-12-09T22:43:49.059Z,55.36
2022-12-09T22:46:52.324Z,55.50
2022-12-09T22:49:54.360Z,55.35
2022-12-09T22:52:56.505Z,55.51
2022-12-09T22:55:58.557Z,55.80
2022-12-09T22:59:00.759Z,55.54
2022-12-09T23:02:02.929Z,55.49
2022-12-09T23:05:08.937Z,55.22
2022-12-09T23:08:11.126Z,55.68
2022-12-09T23:11:19.648Z,55.36
2022-12-09T23:14:21.800Z,55.49
2022-12-09T23:17:23.893Z,55.65
2022-12-09T23:20:26.008Z,55.30
2022-12-09T23:23:28.417Z,55.64
2022-12-09T23:26:31.845Z,55.68
2022-12-09T23:29:34.595Z,55.45
2022-12-09T23:32:37.252Z,55.43
2022-12-09T23:35:39.400Z,55.36
2022-12-09T23:38:41.659Z,55.29
2022-12-09T23:41:44.334Z,55.75
2022-12-09T23:44:46.433Z,55.30
2022-12-09T23:47:48.543Z,55.54
2022-12-09T23:50:50.668Z,55.48
2022-12-09T23:53:55.069Z,55.39
2022-12-09T23:56:57.134Z,55.88
